Time;durP1;ratioP1;P1;durP2;ratioP2;P2;SDS_P1;SDS_P2;PMS_P1;PMS_P2;Temp;Humidity;BMP_temperature;BMP_pressure;BME280_temperature;BME280_humidity;BME280_pressure;Samples;Min_cycle;Max_cycle;Signal;HPM_P1;HPM_P2
2021/06/14 00:02:05;;;;;;;0.90;0.90;;;24.90;37.10;;;;;;4930946;29;20229;-35
2021/06/14 00:04:32;;;;;;;0.93;0.90;;;25.00;37.10;;;;;;4932843;29;20277;-38
2021/06/14 00:06:58;;;;;;;1.02;1.00;;;24.90;37.80;;;;;;4931392;29;20742;-35
2021/06/14 00:09:25;;;;;;;1.88;1.25;;;24.90;37.10;;;;;;4931717;29;20603;-35
2021/06/14 00:11:51;;;;;;;1.25;1.15;;;24.90;37.10;;;;;;4932252;29;20732;-37
2021/06/14 00:14:18;;;;;;;1.02;0.93;;;24.90;37.10;;;;;;4931643;29;20503;-46
2021/06/14 00:16:44;;;;;;;1.30;1.20;;;24.90;37.10;;;;;;4931004;29;20361;-43
2021/06/14 00:19:11;;;;;;;1.10;1.00;;;24.90;37.10;;;;;;4929848;29;20812;-48
2021/06/14 00:21:37;;;;;;;1.42;0.90;;;24.90;37.20;;;;;;4930050;29;20538;-41
2021/06/14 00:24:04;;;;;;;1.65;1.13;;;25.00;37.30;;;;;;4931391;29;20509;-38
2021/06/14 00:26:30;;;;;;;0.90;0.90;;;24.90;37.20;;;;;;4930152;29;20549;-44
2021/06/14 00:28:56;;;;;;;0.93;0.93;;;25.00;37.30;;;;;;4929476;29;20220;-38
2021/06/14 00:31:23;;;;;;;1.05;1.00;;;24.90;37.30;;;;;;4929978;29;20288;-38
2021/06/14 00:33:49;;;;;;;1.48;1.13;;;24.90;37.30;;;;;;4932824;29;20226;-48
2021/06/14 00:36:16;;;;;;;1.38;1.10;;;24.90;37.30;;;;;;4930697;29;20212;-42
2021/06/14 00:38:42;;;;;;;1.02;1.02;;;24.90;37.40;;;;;;4931541;29;20206;-41
2021/06/14 00:41:09;;;;;;;1.17;1.08;;;24.90;37.40;;;;;;4931629;29;20212;-51
2021/06/14 00:43:35;;;;;;;1.00;0.88;;;24.90;37.30;;;;;;4932627;29;20232;-38
2021/06/14 00:46:01;;;;;;;1.20;1.10;;;24.90;37.40;;;;;;4928504;29;20235;-50
2021/06/14 00:48:28;;;;;;;1.40;1.08;;;24.90;37.50;;;;;;4932477;29;20202;-44
2021/06/14 00:50:54;;;;;;;0.80;0.80;;;24.90;37.40;;;;;;4931689;29;20235;-40
2021/06/14 00:53:21;;;;;;;1.15;1.05;;;24.90;37.50;;;;;;4930234;29;20240;-41
2021/06/14 00:55:47;;;;;;;1.13;1.02;;;24.90;37.50;;;;;;4928786;29;20222;-42
2021/06/14 00:58:14;;;;;;;0.90;0.90;;;24.90;37.50;;;;;;4931475;29;20221;-35
2021/06/14 01:00:40;;;;;;;1.17;1.08;;;24.90;37.50;;;;;;4930614;29;20222;-38
2021/06/14 01:03:07;;;;;;;1.42;1.20;;;24.90;37.50;;;;;;4931587;29;20307;-46
2021/06/14 01:05:33;;;;;;;0.90;0.90;;;24.90;37.50;;;;;;4931397;29;20212;-39
2021/06/14 01:07:59;;;;;;;1.33;1.23;;;24.90;37.60;;;;;;4931873;29;20225;-46
2021/06/14 01:10:26;;;;;;;1.17;1.08;;;24.90;37.60;;;;;;4932256;29;20206;-37
2021/06/14 01:12:52;;;;;;;1.20;1.10;;;24.90;37.60;;;;;;4932091;29;20320;-37
2021/06/14 01:15:19;;;;;;;1.08;0.98;;;24.90;37.60;;;;;;4932840;29;20208;-38
2021/06/14 01:17:45;;;;;;;0.90;0.90;;;24.90;37.60;;;;;;4930724;29;20232;-42
2021/06/14 01:20:12;;;;;;;1.55;1.10;;;24.90;37.60;;;;;;4929560;29;20201;-38
2021/06/14 01:22:38;;;;;;;1.50;1.10;;;24.90;37.60;;;;;;4931038;29;20218;-49
2021/06/14 01:25:05;;;;;;;1.10;1.10;;;24.90;37.60;;;;;;4930131;29;20209;-40
2021/06/14 01:27:31;;;;;;;0.90;0.90;;;24.90;37.60;;;;;;4931412;29;20244;-36
2021/06/14 01:29:57;;;;;;;1.23;1.00;;;24.90;37.60;;;;;;4929737;29;20224;-45
2021/06/14 01:32:24;;;;;;;1.70;1.13;;;24.90;37.70;;;;;;4931313;29;20237;-40
2021/06/14 01:34:50;;;;;;;1.00;1.00;;;24.90;37.70;;;;;;4932097;29;20205;-36
2021/06/14 01:37:17;;;;;;;1.10;1.00;;;24.90;37.80;;;;;;4929552;29;20216;-39
2021/06/14 01:39:43;;;;;;;1.77;0.90;;;24.90;37.80;;;;;;4930942;29;20218;-35
2021/06/14 01:42:10;;;;;;;1.10;1.10;;;24.90;37.80;;;;;;4931561;29;20225;-36
2021/06/14 01:44:36;;;;;;;0.90;0.90;;;24.90;37.90;;;;;;4934919;29;20212;-40
2021/06/14 01:47:03;;;;;;;1.52;1.10;;;24.90;38.00;;;;;;4934639;29;20234;-44
2021/06/14 01:49:29;;;;;;;1.88;1.30;;;24.90;37.90;;;;;;4933584;29;20211;-42
2021/06/14 01:51:55;;;;;;;1.10;1.00;;;24.90;38.00;;;;;;4931847;29;20322;-36
2021/06/14 01:54:22;;;;;;;1.75;1.13;;;24.90;38.00;;;;;;4934402;29;20220;-46
2021/06/14 01:56:49;;;;;;;1.20;1.10;;;24.90;38.10;;;;;;4939567;29;20213;-50
2021/06/14 01:59:15;;;;;;;1.30;1.20;;;24.90;38.10;;;;;;4937668;28;20198;-36
2021/06/14 02:01:42;;;;;;;1.30;1.20;;;24.90;38.10;;;;;;4932463;29;20305;-41
2021/06/14 02:04:08;;;;;;;1.35;1.20;;;24.90;38.20;;;;;;4933658;29;20206;-44
2021/06/14 02:06:37;;;;;;;1.90;1.30;;;24.90;38.10;;;;;;4933094;29;20233;-36
2021/06/14 02:09:03;;;;;;;1.20;1.10;;;24.90;38.20;;;;;;4933634;29;20205;-43
2021/06/14 02:11:30;;;;;;;1.10;1.00;;;24.90;38.20;;;;;;4934236;29;20229;-39
2021/06/14 02:13:56;;;;;;;1.10;1.00;;;24.90;38.30;;;;;;4934743;29;20297;-43
2021/06/14 02:16:23;;;;;;;1.05;0.95;;;24.90;38.30;;;;;;4930049;29;20209;-37
2021/06/14 02:18:49;;;;;;;2.33;1.00;;;24.90;38.20;;;;;;4934191;29;20206;-40
2021/06/14 02:21:15;;;;;;;1.00;1.00;;;24.90;38.30;;;;;;4932674;29;20288;-46
2021/06/14 02:23:42;;;;;;;1.20;1.10;;;24.90;38.40;;;;;;4935975;29;20210;-50
2021/06/14 02:26:08;;;;;;;1.38;1.20;;;24.90;38.40;;;;;;4932952;29;20229;-38
2021/06/14 02:28:35;;;;;;;1.35;1.10;;;24.90;38.40;;;;;;4930071;29;20212;-41
2021/06/14 02:31:01;;;;;;;1.98;1.40;;;24.90;38.50;;;;;;4934475;29;20264;-47
2021/06/14 02:33:28;;;;;;;1.88;1.20;;;24.90;38.60;;;;;;4933349;29;20232;-42
2021/06/14 02:35:54;;;;;;;1.38;1.10;;;24.90;38.60;;;;;;4933539;29;20217;-46
2021/06/14 02:38:21;;;;;;;1.88;1.23;;;24.90;38.60;;;;;;4933047;29;20210;-42
2021/06/14 02:40:47;;;;;;;0.93;0.90;;;24.90;38.60;;;;;;4933580;29;20293;-41
2021/06/14 02:43:13;;;;;;;2.80;1.13;;;24.90;38.60;;;;;;4931052;29;21078;-40
2021/06/14 02:45:40;;;;;;;1.85;1.00;;;24.90;38.70;;;;;;4930110;29;20544;-40
2021/06/14 02:48:06;;;;;;;1.95;1.10;;;24.90;38.70;;;;;;4933514;29;20572;-48
2021/06/14 02:50:33;;;;;;;1.38;0.90;;;24.90;38.90;;;;;;4934559;29;20202;-42
2021/06/14 02:52:59;;;;;;;1.40;1.08;;;24.90;38.90;;;;;;4934064;29;20225;-47
2021/06/14 02:55:26;;;;;;;1.10;1.00;;;24.90;38.90;;;;;;4932898;29;20202;-42
2021/06/14 02:57:52;;;;;;;1.45;1.02;;;24.90;38.90;;;;;;4930738;29;20252;-40
2021/06/14 03:00:19;;;;;;;1.05;0.90;;;24.90;38.90;;;;;;4933589;29;20216;-36
2021/06/14 03:02:47;;;;;;;1.35;1.00;;;24.90;38.90;;;;;;4930919;29;20233;-36
2021/06/14 03:05:14;;;;;;;1.50;1.13;;;24.90;38.90;;;;;;4933316;29;20218;-38
2021/06/14 03:07:40;;;;;;;1.05;1.02;;;24.90;38.90;;;;;;4934146;29;20222;-36
2021/06/14 03:10:06;;;;;;;1.60;1.50;;;24.90;38.90;;;;;;4933504;29;20210;-36
2021/06/14 03:12:33;;;;;;;1.10;1.00;;;24.90;38.90;;;;;;4935190;29;20239;-37
2021/06/14 03:14:59;;;;;;;1.08;1.00;;;24.90;38.90;;;;;;4932915;29;20222;-45
2021/06/14 03:17:26;;;;;;;1.27;1.10;;;24.90;38.90;;;;;;4934273;29;20292;-38
2021/06/14 03:19:52;;;;;;;1.20;1.10;;;24.90;38.90;;;;;;4933123;29;20631;-39
2021/06/14 03:22:19;;;;;;;1.05;0.95;;;24.90;38.90;;;;;;4934446;29;20221;-38
2021/06/14 03:24:45;;;;;;;1.25;1.15;;;24.90;38.90;;;;;;4934107;29;20201;-36
2021/06/14 03:27:14;;;;;;;1.20;1.10;;;24.90;38.90;;;;;;4930881;29;20263;-38
2021/06/14 03:29:41;;;;;;;1.88;1.17;;;24.90;38.90;;;;;;4931974;29;20662;-45
2021/06/14 03:32:07;;;;;;;1.20;1.10;;;24.90;38.90;;;;;;4933359;29;20720;-41
2021/06/14 03:34:33;;;;;;;0.93;0.93;;;24.90;38.90;;;;;;4931150;29;20226;-35
2021/06/14 03:37:00;;;;;;;1.10;1.00;;;24.90;38.90;;;;;;4932258;29;20210;-39
2021/06/14 03:39:27;;;;;;;1.00;0.90;;;24.90;38.90;;;;;;4934620;29;20608;-35
2021/06/14 03:41:54;;;;;;;2.30;1.00;;;24.90;38.90;;;;;;4933713;29;20238;-40
2021/06/14 03:44:20;;;;;;;1.42;1.23;;;24.90;38.90;;;;;;4934766;29;20289;-42
2021/06/14 03:46:46;;;;;;;1.90;1.35;;;24.90;38.90;;;;;;4933111;29;20228;-40
2021/06/14 03:49:13;;;;;;;1.45;1.13;;;24.90;38.90;;;;;;4931809;29;20209;-36
2021/06/14 03:51:39;;;;;;;1.02;1.00;;;24.90;38.90;;;;;;4915685;29;20318;-35
2021/06/14 03:54:06;;;;;;;1.25;1.15;;;24.90;38.90;;;;;;4926527;29;20218;-35
2021/06/14 03:56:32;;;;;;;0.88;0.88;;;24.80;38.80;;;;;;4932878;29;20218;-45
2021/06/14 03:58:59;;;;;;;1.20;1.10;;;24.90;38.90;;;;;;4933204;29;20206;-38
2021/06/14 04:01:25;;;;;;;1.40;1.02;;;24.90;38.90;;;;;;4931599;29;20222;-39
2021/06/14 04:04:04;;;;;;;1.20;1.10;;;24.90;38.90;;;;;;4931968;29;20210;-49
2021/06/14 04:06:31;;;;;;;1.17;0.95;;;24.80;38.80;;;;;;4932854;29;20296;-51
2021/06/14 04:08:58;;;;;;;1.38;1.23;;;24.80;38.80;;;;;;4932279;29;20255;-45
2021/06/14 04:11:24;;;;;;;1.30;1.20;;;24.80;38.80;;;;;;4933977;29;20221;-38
2021/06/14 04:13:51;;;;;;;1.38;1.10;;;24.90;38.90;;;;;;4931497;29;20211;-45
2021/06/14 04:16:17;;;;;;;1.35;1.08;;;24.90;38.90;;;;;;4933302;29;20213;-40
2021/06/14 04:18:43;;;;;;;1.10;1.00;;;24.90;38.90;;;;;;4933425;29;20250;-37
2021/06/14 04:21:10;;;;;;;1.13;1.05;;;24.90;38.90;;;;;;4932582;29;20228;-49
2021/06/14 04:23:36;;;;;;;1.33;1.10;;;24.90;38.90;;;;;;4933190;29;20205;-37
2021/06/14 04:26:03;;;;;;;1.02;0.95;;;24.80;38.80;;;;;;4932616;29;20228;-45
2021/06/14 04:28:29;;;;;;;2.28;1.00;;;24.80;38.80;;;;;;4931422;29;20733;-39
2021/06/14 04:30:56;;;;;;;1.27;1.00;;;24.90;39.60;;;;;;4928299;29;20297;-34
2021/06/14 04:33:22;;;;;;;1.30;1.20;;;24.90;38.90;;;;;;4930954;29;20224;-40
2021/06/14 04:35:48;;;;;;;1.55;1.20;;;24.90;38.90;;;;;;4933435;29;20228;-50
2021/06/14 04:38:15;;;;;;;2.67;1.30;;;24.80;38.80;;;;;;4931917;29;20201;-44
2021/06/14 04:40:41;;;;;;;1.33;1.00;;;24.90;38.90;;;;;;4933054;29;20206;-36
2021/06/14 04:43:08;;;;;;;1.10;1.10;;;24.90;38.90;;;;;;4932807;29;20579;-39
2021/06/14 04:45:34;;;;;;;1.02;1.02;;;24.90;38.90;;;;;;4933690;29;20575;-40
2021/06/14 04:48:01;;;;;;;1.20;1.10;;;24.90;38.90;;;;;;4931218;29;20564;-34
2021/06/14 04:50:27;;;;;;;2.17;1.33;;;24.90;38.90;;;;;;4932725;29;20559;-41
2021/06/14 04:52:54;;;;;;;1.52;1.02;;;24.80;38.80;;;;;;4929969;29;20691;-34
2021/06/14 04:55:20;;;;;;;1.20;1.10;;;24.80;38.80;;;;;;4932216;29;20285;-42
2021/06/14 04:57:46;;;;;;;1.48;1.00;;;24.90;38.90;;;;;;4930713;29;20216;-38
2021/06/14 05:00:13;;;;;;;1.00;1.00;;;24.90;38.90;;;;;;4931239;29;20257;-38
2021/06/14 05:02:39;;;;;;;1.20;1.10;;;24.90;38.90;;;;;;4928686;29;20218;-45
2021/06/14 05:05:06;;;;;;;1.10;1.00;;;24.80;38.80;;;;;;4925163;29;20202;-36
2021/06/14 05:07:32;;;;;;;1.50;1.40;;;24.90;38.90;;;;;;4932650;29;20233;-50
2021/06/14 05:09:59;;;;;;;1.20;1.10;;;24.90;38.90;;;;;;4933261;29;20212;-38
2021/06/14 05:12:25;;;;;;;1.40;1.30;;;24.90;38.90;;;;;;4928642;29;20333;-37
2021/06/14 05:14:51;;;;;;;1.48;1.10;;;24.90;38.90;;;;;;4931259;29;20206;-37
2021/06/14 05:17:18;;;;;;;2.03;1.20;;;24.90;38.90;;;;;;4934555;29;20220;-46
2021/06/14 05:19:44;;;;;;;1.20;1.10;;;24.80;38.80;;;;;;4938587;29;20201;-35
2021/06/14 05:22:11;;;;;;;1.48;1.00;;;24.80;38.80;;;;;;4939203;29;20245;-39
2021/06/14 05:24:37;;;;;;;1.23;1.10;;;24.80;38.80;;;;;;4938083;29;20204;-41
2021/06/14 05:27:04;;;;;;;0.93;0.90;;;24.90;38.90;;;;;;4938759;29;20335;-51
2021/06/14 05:29:30;;;;;;;2.42;1.10;;;24.90;38.90;;;;;;4937553;29;20212;-47
2021/06/14 05:31:57;;;;;;;2.28;1.30;;;24.90;38.90;;;;;;4937825;29;20304;-39
2021/06/14 05:34:24;;;;;;;1.33;1.23;;;24.90;38.90;;;;;;4938447;29;20232;-37
2021/06/14 05:36:50;;;;;;;1.10;1.10;;;24.80;38.80;;;;;;4938071;29;20206;-38
2021/06/14 05:39:16;;;;;;;1.38;1.20;;;24.90;38.90;;;;;;4937885;29;20202;-38
2021/06/14 05:41:43;;;;;;;1.58;1.10;;;24.90;38.90;;;;;;4938872;29;20225;-41
2021/06/14 05:44:09;;;;;;;1.23;1.15;;;24.90;38.90;;;;;;4938534;29;20288;-45
2021/06/14 05:46:36;;;;;;;1.20;1.13;;;24.90;38.90;;;;;;4937829;29;20206;-42
2021/06/14 05:49:03;;;;;;;1.17;1.02;;;24.80;38.80;;;;;;4931912;29;20341;-42
2021/06/14 05:51:29;;;;;;;2.22;1.35;;;24.80;38.80;;;;;;4933522;29;20285;-37
2021/06/14 05:53:56;;;;;;;1.20;1.13;;;24.90;38.90;;;;;;4937510;29;20205;-42
2021/06/14 05:56:23;;;;;;;1.45;1.35;;;24.90;38.90;;;;;;4936640;29;20222;-39
2021/06/14 05:58:50;;;;;;;1.30;1.20;;;24.90;38.90;;;;;;4934970;29;20586;-43
2021/06/14 06:01:16;;;;;;;1.23;1.13;;;24.90;38.90;;;;;;4933920;29;20222;-36
2021/06/14 06:03:42;;;;;;;2.13;1.30;;;24.90;38.90;;;;;;4937872;29;20300;-35
2021/06/14 06:06:09;;;;;;;1.23;1.00;;;24.80;38.80;;;;;;4926902;29;20209;-42
2021/06/14 06:08:35;;;;;;;0.93;0.93;;;24.90;38.90;;;;;;4927744;29;20234;-47
2021/06/14 06:11:02;;;;;;;1.63;1.20;;;24.90;38.90;;;;;;4934461;29;20230;-43
2021/06/14 06:13:28;;;;;;;5.55;2.15;;;24.90;39.20;;;;;;4934755;29;20220;-47
2021/06/14 06:15:55;;;;;;;5.40;2.28;;;24.80;36.10;;;;;;4932848;29;20209;-35
2021/06/14 06:18:21;;;;;;;3.70;1.92;;;24.60;34.50;;;;;;4931317;29;20222;-49
2021/06/14 06:20:48;;;;;;;5.03;2.60;;;24.60;33.70;;;;;;4934571;29;20232;-44
2021/06/14 06:23:14;;;;;;;3.78;2.90;;;24.50;33.20;;;;;;4932779;29;20206;-40
2021/06/14 06:25:41;;;;;;;7.78;2.97;;;24.30;32.80;;;;;;4932964;29;20320;-34
2021/06/14 06:28:07;;;;;;;7.13;2.72;;;24.30;33.20;;;;;;4934356;29;20234;-38
2021/06/14 06:30:36;;;;;;;3.88;2.55;;;24.40;32.90;;;;;;4932146;29;20242;-34
2021/06/14 06:33:02;;;;;;;2.75;2.47;;;24.60;32.80;;;;;;4930715;29;20202;-42
2021/06/14 06:35:29;;;;;;;5.28;2.25;;;24.60;33.70;;;;;;4935347;29;20202;-32
2021/06/14 06:37:55;;;;;;;3.75;2.20;;;24.70;34.30;;;;;;4932949;29;20213;-40
2021/06/14 06:40:22;;;;;;;3.40;2.20;;;24.70;34.80;;;;;;4929579;29;20232;-42
2021/06/14 06:42:48;;;;;;;3.30;2.20;;;24.70;36.00;;;;;;4929245;29;20218;-41
2021/06/14 06:45:15;;;;;;;2.78;1.90;;;24.80;35.50;;;;;;4933862;29;20206;-41
2021/06/14 06:47:41;;;;;;;3.53;2.15;;;24.80;35.90;;;;;;4933302;29;20236;-42
2021/06/14 06:50:08;;;;;;;3.28;2.00;;;24.80;35.90;;;;;;4929360;29;20213;-33
2021/06/14 06:52:35;;;;;;;4.18;2.03;;;24.90;35.90;;;;;;4927518;29;20338;-34
2021/06/14 06:55:02;;;;;;;2.42;1.90;;;24.90;35.90;;;;;;4934115;29;20228;-39
2021/06/14 06:57:28;;;;;;;2.00;1.75;;;24.90;36.30;;;;;;4929751;29;20700;-34
2021/06/14 06:59:54;;;;;;;3.90;1.75;;;24.90;36.60;;;;;;4929803;29;20681;-33
2021/06/14 07:02:21;;;;;;;11.63;3.17;;;25.00;36.70;;;;;;4927852;29;20658;-41
2021/06/14 07:04:47;;;;;;;3.25;2.13;;;24.90;36.00;;;;;;4934311;29;20638;-43
2021/06/14 07:07:14;;;;;;;4.55;1.90;;;24.90;35.70;;;;;;4934413;29;20232;-33
2021/06/14 07:09:40;;;;;;;2.40;2.10;;;24.90;35.10;;;;;;4925384;29;20224;-33
2021/06/14 07:12:07;;;;;;;2.50;2.00;;;24.90;34.60;;;;;;4930829;29;20225;-33
2021/06/14 07:14:34;;;;;;;4.45;2.10;;;24.80;33.90;;;;;;4924667;29;20297;-42
2021/06/14 07:17:00;;;;;;;3.17;2.00;;;24.80;33.90;;;;;;4931973;29;20289;-34
2021/06/14 07:19:26;;;;;;;3.20;2.45;;;24.80;33.90;;;;;;4934975;29;20206;-35
2021/06/14 07:21:54;;;;;;;6.65;2.00;;;24.80;33.90;;;;;;4931832;29;20320;-37
2021/06/14 07:24:20;;;;;;;2.90;2.20;;;24.90;34.20;;;;;;4928678;29;20597;-42
2021/06/14 07:26:47;;;;;;;1.95;1.83;;;24.90;34.70;;;;;;4927995;29;20228;-39
2021/06/14 07:29:13;;;;;;;2.90;1.80;;;24.90;35.20;;;;;;4934665;29;20722;-37
2021/06/14 07:31:39;;;;;;;4.10;1.90;;;24.90;35.90;;;;;;4934349;29;20602;-43
2021/06/14 07:34:08;;;;;;;2.53;1.88;;;24.90;36.00;;;;;;4934890;29;20217;-36
2021/06/14 07:36:34;;;;;;;4.70;2.00;;;24.90;36.20;;;;;;4934566;29;20206;-36
2021/06/14 07:39:01;;;;;;;2.88;2.40;;;24.90;36.40;;;;;;4934622;29;20232;-39
2021/06/14 07:41:27;;;;;;;3.97;1.80;;;24.90;36.50;;;;;;4934394;29;20320;-39
2021/06/14 07:43:54;;;;;;;2.38;1.70;;;24.90;36.50;;;;;;4934415;29;20308;-37
2021/06/14 07:46:20;;;;;;;2.58;1.73;;;24.80;36.50;;;;;;4932721;29;20522;-39
2021/06/14 07:48:47;;;;;;;2.35;1.60;;;24.90;36.70;;;;;;4915943;29;20603;-34
2021/06/14 07:51:13;;;;;;;2.15;1.65;;;24.90;36.80;;;;;;4921084;29;20618;-37
2021/06/14 07:53:40;;;;;;;2.88;1.75;;;24.90;36.80;;;;;;4934534;29;20292;-45
2021/06/14 07:56:07;;;;;;;2.88;1.88;;;24.90;36.90;;;;;;4934091;29;20294;-39
2021/06/14 07:58:34;;;;;;;3.83;1.90;;;24.90;36.90;;;;;;4934457;29;20249;-43
2021/06/14 08:01:02;;;;;;;2.45;1.75;;;24.90;37.00;;;;;;4934467;29;20222;-43
2021/06/14 08:03:29;;;;;;;1.67;1.58;;;24.90;37.10;;;;;;4933733;29;20202;-44
2021/06/14 08:05:56;;;;;;;2.15;1.67;;;24.90;37.10;;;;;;4934164;29;20205;-38
2021/06/14 08:08:22;;;;;;;2.50;1.58;;;24.90;37.10;;;;;;4929927;29;20296;-55
2021/06/14 08:10:49;;;;;;;1.80;1.58;;;24.90;37.20;;;;;;4934032;29;20232;-44
2021/06/14 08:13:15;;;;;;;2.20;2.00;;;24.90;37.30;;;;;;4933898;29;20202;-39
2021/06/14 08:15:42;;;;;;;2.45;1.80;;;24.90;37.30;;;;;;4933743;29;20297;-41
2021/06/14 08:18:17;;;;;;;1.90;1.73;;;24.90;37.30;;;;;;4933971;29;20248;-44
2021/06/14 08:20:52;;;;;;;1.88;1.58;;;24.90;37.40;;;;;;4932707;29;20289;-41
2021/06/14 08:26:02;;;;;;;2.15;1.90;;;24.90;37.50;;;;;;4933666;29;20319;-44
2021/06/14 08:28:28;;;;;;;2.30;2.08;;;24.90;37.50;;;;;;4933995;29;20236;-44
2021/06/14 08:30:55;;;;;;;2.90;1.80;;;24.90;37.60;;;;;;4933620;29;20240;-38
2021/06/14 08:33:21;;;;;;;2.08;1.60;;;24.90;37.60;;;;;;4933577;29;20258;-49
2021/06/14 08:35:48;;;;;;;1.67;1.52;;;24.90;37.60;;;;;;4933069;29;20213;-44
2021/06/14 08:38:14;;;;;;;1.98;1.75;;;24.90;37.60;;;;;;4933759;29;20218;-37
2021/06/14 08:40:41;;;;;;;2.05;1.70;;;24.90;37.60;;;;;;4933588;29;20225;-47
2021/06/14 08:43:08;;;;;;;2.33;2.10;;;24.90;37.70;;;;;;4933152;29;20217;-36
2021/06/14 08:45:35;;;;;;;1.90;1.65;;;24.90;37.70;;;;;;4933208;29;20206;-38
2021/06/14 08:48:01;;;;;;;2.22;1.77;;;24.90;37.70;;;;;;4933513;29;20655;-43
2021/06/14 08:50:27;;;;;;;1.67;1.58;;;24.90;37.80;;;;;;4933558;29;20687;-41
2021/06/14 08:52:54;;;;;;;3.60;1.83;;;24.90;37.80;;;;;;4933003;29;20313;-40
2021/06/14 08:55:20;;;;;;;1.73;1.63;;;24.90;37.80;;;;;;4933163;29;20210;-44
2021/06/14 08:57:47;;;;;;;2.00;1.80;;;24.90;37.90;;;;;;4933543;29;20239;-44
2021/06/14 09:00:14;;;;;;;1.85;1.70;;;24.90;37.90;;;;;;4933343;29;20241;-41
2021/06/14 09:02:40;;;;;;;3.38;1.65;;;24.90;37.90;;;;;;4933339;29;20641;-44
2021/06/14 09:05:06;;;;;;;1.70;1.60;;;24.90;37.90;;;;;;4933290;29;20202;-39
2021/06/14 09:07:33;;;;;;;1.70;1.58;;;24.90;37.90;;;;;;4933081;29;20206;-39
2021/06/14 09:09:59;;;;;;;1.77;1.67;;;24.90;37.90;;;;;;4933151;29;20226;-37
2021/06/14 09:12:26;;;;;;;1.98;1.70;;;24.90;38.00;;;;;;4933311;29;20210;-37
2021/06/14 09:14:53;;;;;;;3.13;1.63;;;24.90;38.00;;;;;;4933473;29;20212;-43
2021/06/14 09:17:20;;;;;;;2.00;1.80;;;24.90;38.00;;;;;;4927426;29;20302;-42
2021/06/14 09:19:46;;;;;;;1.75;1.65;;;24.90;38.00;;;;;;4933356;29;20681;-40
2021/06/14 09:22:13;;;;;;;1.75;1.65;;;24.90;38.10;;;;;;4932702;29;20540;-42
2021/06/14 09:24:39;;;;;;;3.25;1.90;;;24.90;38.10;;;;;;4931969;29;20213;-38
2021/06/14 09:27:06;;;;;;;1.60;1.50;;;24.90;38.10;;;;;;4932311;29;20217;-41
2021/06/14 09:29:32;;;;;;;2.28;1.65;;;24.90;38.10;;;;;;4930152;29;20240;-48
2021/06/14 09:31:59;;;;;;;2.03;1.55;;;24.90;38.10;;;;;;4932632;29;20366;-47
2021/06/14 09:34:25;;;;;;;1.85;1.70;;;24.90;38.10;;;;;;4932593;29;20209;-39
2021/06/14 09:36:52;;;;;;;2.58;1.73;;;24.90;38.10;;;;;;4932445;29;20213;-39
2021/06/14 09:39:18;;;;;;;2.35;1.70;;;24.90;38.20;;;;;;4933024;29;20208;-37
2021/06/14 09:41:47;;;;;;;2.03;1.85;;;24.90;38.20;;;;;;4931170;29;20222;-38
2021/06/14 09:44:13;;;;;;;1.50;1.40;;;24.90;38.20;;;;;;4929528;29;20868;-38
2021/06/14 09:46:40;;;;;;;1.70;1.60;;;24.90;38.20;;;;;;4932518;29;20567;-43
2021/06/14 09:49:06;;;;;;;1.30;1.27;;;24.90;38.20;;;;;;4923303;29;20305;-44
2021/06/14 09:51:33;;;;;;;2.22;1.50;;;24.90;38.30;;;;;;4928539;29;20221;-44
2021/06/14 09:54:00;;;;;;;5.20;1.77;;;24.90;38.30;;;;;;4928230;29;20209;-37
2021/06/14 09:56:26;;;;;;;3.22;1.63;;;24.90;38.50;;;;;;4916684;29;20202;-53
2021/06/14 09:58:53;;;;;;;2.58;1.67;;;25.00;38.40;;;;;;4923729;29;20216;-41
2021/06/14 10:01:19;;;;;;;4.07;1.70;;;25.00;38.60;;;;;;4921079;29;20322;-41
2021/06/14 10:03:46;;;;;;;2.10;1.58;;;25.10;38.60;;;;;;4920535;29;20282;-43
2021/06/14 10:06:12;;;;;;;5.13;1.77;;;25.10;39.00;;;;;;4924729;29;20738;-41
2021/06/14 10:08:39;;;;;;;1.83;1.58;;;25.10;39.00;;;;;;4923903;29;20676;-42
2021/06/14 10:11:06;;;;;;;2.95;1.50;;;25.10;38.70;;;;;;4925960;29;20229;-44
2021/06/14 10:13:32;;;;;;;2.47;1.55;;;25.10;39.00;;;;;;4923772;29;20209;-40
2021/06/14 10:15:58;;;;;;;2.92;1.75;;;25.10;39.00;;;;;;4922905;29;20745;-35
2021/06/14 10:18:25;;;;;;;3.90;1.73;;;25.10;39.00;;;;;;4924942;29;20553;-35
2021/06/14 10:20:51;;;;;;;4.07;1.70;;;25.10;39.00;;;;;;4924325;29;21968;-38
2021/06/14 10:23:18;;;;;;;3.08;2.00;;;25.10;38.50;;;;;;4926516;29;20325;-41
2021/06/14 10:25:44;;;;;;;2.15;1.75;;;25.10;37.90;;;;;;4922906;29;20217;-35
2021/06/14 10:28:11;;;;;;;2.17;1.98;;;25.00;37.20;;;;;;4928590;29;20212;-41
2021/06/14 10:30:37;;;;;;;2.63;2.30;;;25.00;36.20;;;;;;4933838;29;20269;-41
2021/06/14 10:33:04;;;;;;;3.55;2.45;;;25.00;35.70;;;;;;4934829;29;20240;-39
2021/06/14 10:35:30;;;;;;;3.45;2.45;;;25.00;35.20;;;;;;4934137;29;20206;-40
2021/06/14 10:37:57;;;;;;;3.13;2.10;;;25.00;34.40;;;;;;4933455;29;20206;-45
2021/06/14 10:40:25;;;;;;;4.45;2.45;;;25.00;34.10;;;;;;4931473;29;20229;-51
2021/06/14 10:42:51;;;;;;;3.42;2.25;;;25.00;34.10;;;;;;4929696;29;20206;-38
2021/06/14 10:45:18;;;;;;;3.90;2.30;;;25.00;34.00;;;;;;4931230;29;20207;-42
2021/06/14 10:47:44;;;;;;;4.03;2.00;;;25.00;34.10;;;;;;4925433;29;20236;-38
2021/06/14 10:50:12;;;;;;;3.60;2.00;;;25.00;34.80;;;;;;4931863;29;20242;-47
2021/06/14 10:52:39;;;;;;;2.53;2.10;;;25.00;34.10;;;;;;4929204;29;20202;-38
2021/06/14 10:55:06;;;;;;;2.53;2.00;;;25.00;34.10;;;;;;4932687;29;20579;-40
2021/06/14 10:57:32;;;;;;;4.50;2.70;;;25.00;34.00;;;;;;4935293;29;20210;-38
2021/06/14 10:59:58;;;;;;;3.95;2.22;;;25.00;33.60;;;;;;4933081;29;20233;-36
2021/06/14 11:02:25;;;;;;;5.25;2.78;;;25.00;33.40;;;;;;4933603;29;20289;-37
2021/06/14 11:04:52;;;;;;;3.13;2.05;;;25.00;33.30;;;;;;4926534;29;20214;-36
2021/06/14 11:07:18;;;;;;;2.95;2.05;;;25.00;34.50;;;;;;4932991;29;20206;-41
2021/06/14 11:09:45;;;;;;;3.13;2.53;;;25.10;35.20;;;;;;4932135;29;20245;-43
2021/06/14 11:12:11;;;;;;;6.88;2.55;;;25.00;34.10;;;;;;4920215;29;20336;-46
2021/06/14 11:14:38;;;;;;;4.88;3.42;;;25.00;34.10;;;;;;4929601;29;20669;-43
2021/06/14 11:17:06;;;;;;;5.20;2.97;;;25.00;34.10;;;;;;4926781;29;20569;-40
2021/06/14 11:19:33;;;;;;;4.13;2.47;;;25.00;34.00;;;;;;4926449;29;20230;-47
2021/06/14 11:21:59;;;;;;;2.45;2.25;;;25.00;33.10;;;;;;4928613;29;20212;-39
2021/06/14 11:24:26;;;;;;;4.32;2.50;;;25.00;33.10;;;;;;4931308;29;20305;-41
2021/06/14 11:26:52;;;;;;;3.38;2.40;;;25.00;32.70;;;;;;4929704;29;20249;-47
2021/06/14 11:29:20;;;;;;;4.00;2.40;;;25.00;32.50;;;;;;4925291;29;20247;-38
2021/06/14 11:31:47;;;;;;;2.75;2.15;;;25.00;32.50;;;;;;4925884;29;20209;-48
2021/06/14 11:34:13;;;;;;;4.07;2.60;;;25.00;32.90;;;;;;4929848;29;20293;-46
2021/06/14 11:36:40;;;;;;;2.78;2.25;;;25.00;33.00;;;;;;4929487;29;20688;-35
2021/06/14 11:39:06;;;;;;;3.33;2.30;;;25.00;32.50;;;;;;4930304;29;20551;-34
2021/06/14 11:41:32;;;;;;;5.57;2.88;;;25.00;32.20;;;;;;4929402;29;20306;-38
2021/06/14 11:43:59;;;;;;;3.83;2.55;;;25.00;32.00;;;;;;4928418;29;20224;-42
2021/06/14 11:46:25;;;;;;;2.58;2.13;;;25.00;31.60;;;;;;4929151;29;20210;-46
2021/06/14 11:48:52;;;;;;;4.72;2.47;;;25.00;33.20;;;;;;4926789;29;20237;-35
2021/06/14 11:51:19;;;;;;;2.95;2.20;;;25.00;33.30;;;;;;4926124;29;20202;-35
2021/06/14 11:53:52;;;;;;;4.35;2.33;;;25.00;34.10;;;;;;4923968;29;20289;-35
2021/06/14 11:56:19;;;;;;;2.03;1.83;;;25.00;34.10;;;;;;4924212;29;20206;-33
2021/06/14 11:58:45;;;;;;;3.45;2.40;;;25.00;34.60;;;;;;4924483;29;20240;-44
2021/06/14 12:01:12;;;;;;;2.80;2.30;;;25.00;34.80;;;;;;4924954;29;20304;-38
2021/06/14 12:03:38;;;;;;;2.83;2.40;;;25.00;35.00;;;;;;4924572;29;20198;-40
2021/06/14 12:06:05;;;;;;;4.18;2.28;;;25.00;35.10;;;;;;4925026;29;20224;-44
2021/06/14 12:08:31;;;;;;;2.95;2.28;;;25.00;35.20;;;;;;4924362;29;20206;-50
2021/06/14 12:10:57;;;;;;;3.28;2.60;;;25.00;35.40;;;;;;4927631;29;20209;-42
2021/06/14 12:13:24;;;;;;;2.72;2.10;;;25.00;35.50;;;;;;4921916;29;20675;-36
2021/06/14 12:15:50;;;;;;;2.55;2.35;;;25.00;35.60;;;;;;4923987;29;20305;-48
2021/06/14 12:18:17;;;;;;;3.80;2.60;;;25.00;35.70;;;;;;4922269;29;20202;-35
2021/06/14 12:20:43;;;;;;;3.35;2.08;;;25.00;35.80;;;;;;4925730;29;20212;-44
2021/06/14 12:23:10;;;;;;;3.15;2.28;;;25.00;35.90;;;;;;4926732;29;20209;-35
2021/06/14 12:25:37;;;;;;;2.60;2.40;;;25.00;36.00;;;;;;4927057;29;20206;-39
2021/06/14 12:28:03;;;;;;;4.18;2.50;;;25.00;36.00;;;;;;4926079;28;20222;-37
2021/06/14 12:30:30;;;;;;;2.72;2.20;;;25.00;36.20;;;;;;4929866;29;20499;-35
2021/06/14 12:32:56;;;;;;;2.22;1.92;;;25.00;36.20;;;;;;4929790;29;20591;-34
2021/06/14 12:35:23;;;;;;;2.53;2.22;;;25.00;36.30;;;;;;4928795;29;20210;-43
2021/06/14 12:37:49;;;;;;;2.42;2.17;;;25.00;36.30;;;;;;4927124;29;20758;-42
2021/06/14 12:40:16;;;;;;;2.95;2.20;;;25.00;36.30;;;;;;4926575;29;20607;-35
2021/06/14 12:42:42;;;;;;;2.30;2.10;;;25.00;36.40;;;;;;4927438;29;20228;-38
2021/06/14 12:45:09;;;;;;;3.05;2.20;;;25.00;36.50;;;;;;4930868;29;20236;-34
2021/06/14 12:47:35;;;;;;;2.95;1.98;;;25.00;36.70;;;;;;4927816;29;20210;-34